Time;durP1;ratioP1;P1;durP2;ratioP2;P2;SDS_P1;SDS_P2;PMS_P1;PMS_P2;Temp;Humidity;BMP_temperature;BMP_pressure;BME280_temperature;BME280_humidity;BME280_pressure;Samples;Min_cycle;Max_cycle;Signal;HPM_P1;HPM_P2
2023/08/29 00:01:24;;;;;;;1.88;0.73;;;;;;;11.14;54.72;101242.16;4979789;28;20022;-77
2023/08/29 00:03:51;;;;;;;1.05;0.80;;;;;;;11.05;54.79;101240.72;4977904;28;20204;-78
2023/08/29 00:06:17;;;;;;;1.42;0.40;;;;;;;11.00;54.95;101237.44;4981709;28;20198;-76
2023/08/29 00:08:42;;;;;;;1.23;0.65;;;;;;;10.88;55.00;101226.56;4961185;28;20554;-76
2023/08/29 00:11:08;;;;;;;0.90;0.50;;;;;;;10.93;55.00;101229.84;4979892;28;20025;-76
2023/08/29 00:13:33;;;;;;;2.15;0.70;;;;;;;10.95;55.24;101234.16;4978961;28;20054;-77
2023/08/29 00:15:59;;;;;;;2.33;0.90;;;;;;;10.87;54.92;101228.31;4996959;28;20069;-77
2023/08/29 00:18:24;;;;;;;0.98;0.47;;;;;;;10.79;55.19;101225.09;4981985;28;20046;-76
2023/08/29 00:20:51;;;;;;;1.90;0.70;;;;;;;10.72;55.03;101232.28;4995073;28;20045;-77
2023/08/29 00:23:17;;;;;;;1.20;0.70;;;;;;;10.79;55.03;101227.69;4980880;28;20423;-76
2023/08/29 00:25:42;;;;;;;6.13;1.55;;;;;;;10.68;55.27;101216.78;4999254;28;20040;-77
2023/08/29 00:28:08;;;;;;;1.73;0.68;;;;;;;10.52;55.30;101219.06;4980330;28;20452;-77
2023/08/29 00:30:36;;;;;;;1.52;0.70;;;;;;;10.40;55.49;101218.56;4995701;28;20034;-77
2023/08/29 00:33:02;;;;;;;1.23;0.70;;;;;;;10.37;55.51;101218.69;4957409;28;20062;-76
2023/08/29 00:35:28;;;;;;;2.40;0.90;;;;;;;10.34;55.81;101217.94;4983517;28;20056;-76
2023/08/29 00:37:53;;;;;;;5.45;0.68;;;;;;;10.32;55.87;101215.34;4994568;28;20529;-77
2023/08/29 00:40:19;;;;;;;1.88;0.73;;;;;;;10.20;56.12;101210.56;4986272;28;20042;-77
2023/08/29 00:42:45;;;;;;;1.40;0.85;;;;;;;10.19;56.52;101212.31;4980825;28;20091;-76
2023/08/29 00:45:10;;;;;;;1.65;0.93;;;;;;;10.15;56.36;101208.09;4981748;28;20041;-76
2023/08/29 00:47:37;;;;;;;2.88;0.90;;;;;;;10.12;56.55;101205.56;4994038;28;20041;-77
2023/08/29 00:50:05;;;;;;;1.95;0.80;;;;;;;10.09;56.76;101215.28;4977229;28;20160;-77
2023/08/29 00:52:31;;;;;;;1.60;0.73;;;;;;;10.05;56.57;101219.72;4997603;28;20060;-77
2023/08/29 00:54:56;;;;;;;1.70;0.60;;;;;;;9.98;56.43;101223.44;4979750;28;20042;-77
2023/08/29 00:57:22;;;;;;;3.30;0.98;;;;;;;9.96;56.29;101206.97;4995285;28;20046;-75
2023/08/29 00:59:49;;;;;;;1.50;0.63;;;;;;;10.10;56.46;101193.47;4999824;28;20045;-77
2023/08/29 01:02:14;;;;;;;1.00;0.68;;;;;;;10.13;56.19;101183.78;4980063;28;20033;-76
2023/08/29 01:04:40;;;;;;;2.45;0.95;;;;;;;10.26;55.81;101185.97;4977029;28;20863;-77
2023/08/29 01:07:06;;;;;;;2.40;0.65;;;;;;;10.29;55.42;101183.28;4977618;28;20753;-75
2023/08/29 01:09:33;;;;;;;1.50;0.82;;;;;;;10.33;55.43;101177.03;4997938;28;20522;-76
2023/08/29 01:12:18;;;;;;;1.80;1.05;;;;;;;10.28;55.26;101173.72;4978521;28;20052;-76
2023/08/29 01:14:50;;;;;;;3.00;1.30;;;;;;;10.16;55.78;101186.28;4981592;28;20184;-77
2023/08/29 01:17:19;;;;;;;;;;;;;;;10.07;56.06;101185.75;4973617;28;20041;-76
2023/08/29 01:19:49;;;;;;;6.32;1.50;;;;;;;10.01;56.01;101181.56;4966321;28;19917;-77
2023/08/29 01:22:53;;;;;;;2.40;1.20;;;;;;;10.06;56.35;101179.69;4990787;28;20057;-77
2023/08/29 01:25:41;;;;;;;1.58;1.23;;;;;;;10.07;56.08;101181.38;4918298;28;20081;-76
2023/08/29 01:28:07;;;;;;;5.72;1.35;;;;;;;10.13;56.10;101181.16;4978756;28;20092;-77
2023/08/29 01:30:33;;;;;;;2.40;1.60;;;;;;;10.23;55.92;101179.09;4966864;28;20030;-77
2023/08/29 01:32:59;;;;;;;1.58;1.20;;;;;;;10.24;55.65;101177.34;4990745;28;20042;-75
2023/08/29 01:35:26;;;;;;;3.00;1.55;;;;;;;10.19;55.86;101182.72;4994167;28;20121;-77
2023/08/29 01:37:52;;;;;;;2.03;1.10;;;;;;;10.16;56.21;101175.84;4997964;28;21103;-76
2023/08/29 01:40:18;;;;;;;2.10;1.70;;;;;;;10.09;56.22;101179.56;4993784;28;20060;-77
2023/08/29 01:42:44;;;;;;;2.05;1.48;;;;;;;10.03;56.30;101179.75;4981037;28;20057;-76
2023/08/29 01:45:09;;;;;;;1.83;1.40;;;;;;;10.18;56.08;101181.00;4979158;28;20113;-77
2023/08/29 01:47:35;;;;;;;5.25;1.42;;;;;;;10.21;56.09;101176.56;4993118;28;20161;-77
2023/08/29 01:50:03;;;;;;;2.00;1.02;;;;;;;10.12;56.12;101174.22;4961670;28;20480;-76
2023/08/29 01:52:30;;;;;;;2.33;1.45;;;;;;;10.05;56.03;101185.78;4960720;28;20107;-77
2023/08/29 01:54:56;;;;;;;2.40;1.77;;;;;;;9.97;56.25;101195.66;4982827;28;20052;-77
2023/08/29 01:57:25;;;;;;;2.83;1.58;;;;;;;9.90;56.20;101200.22;4981390;28;20045;-77
2023/08/29 01:59:52;;;;;;;4.15;1.73;;;;;;;9.87;56.60;101189.00;4979854;28;20128;-75
2023/08/29 02:02:18;;;;;;;2.72;1.75;;;;;;;10.02;56.50;101183.28;4974737;28;20049;-76
2023/08/29 02:04:44;;;;;;;2.28;1.90;;;;;;;10.01;55.98;101186.78;4992524;28;20152;-76
2023/08/29 02:07:10;;;;;;;2.63;2.13;;;;;;;9.89;56.36;101181.97;4980510;28;20041;-75
2023/08/29 02:09:35;;;;;;;4.07;1.25;;;;;;;9.97;56.52;101177.38;4961590;28;20041;-77
2023/08/29 02:12:01;;;;;;;3.20;1.80;;;;;;;10.03;56.54;101177.16;4989619;28;20026;-75
2023/08/29 02:14:27;;;;;;;2.92;2.03;;;;;;;10.00;56.43;101177.25;4982658;28;20049;-76
2023/08/29 02:16:52;;;;;;;1.98;1.77;;;;;;;9.95;56.76;101187.84;4982383;28;20034;-76
2023/08/29 02:19:19;;;;;;;2.45;1.60;;;;;;;10.03;56.59;101192.81;4981187;28;20049;-75
2023/08/29 02:21:45;;;;;;;3.30;1.67;;;;;;;10.19;56.68;101196.66;4987530;28;20068;-77
2023/08/29 02:24:10;;;;;;;3.88;1.73;;;;;;;10.32;56.81;101199.69;4997000;28;20050;-76
2023/08/29 02:26:35;;;;;;;3.83;1.83;;;;;;;10.47;56.68;101206.16;4996190;28;20030;-76
2023/08/29 02:29:01;;;;;;;3.65;2.08;;;;;;;10.45;56.08;101222.78;4983742;28;20618;-78
2023/08/29 02:31:27;;;;;;;1.80;1.52;;;;;;;10.38;56.20;101230.00;4967670;28;20037;-77
2023/08/29 02:33:53;;;;;;;2.10;1.90;;;;;;;10.34;56.20;101237.06;4995408;28;21503;-75
2023/08/29 02:36:19;;;;;;;1.40;1.23;;;;;;;10.42;56.44;101249.88;4982078;28;20030;-76
2023/08/29 02:38:44;;;;;;;2.03;1.50;;;;;;;10.46;56.15;101248.88;4983858;28;20745;-76
2023/08/29 02:41:12;;;;;;;5.93;1.45;;;;;;;10.43;56.50;101246.34;4983158;28;20677;-76
2023/08/29 02:43:38;;;;;;;2.17;1.73;;;;;;;10.47;56.06;101247.13;4998242;28;20094;-77
2023/08/29 02:46:04;;;;;;;2.95;1.80;;;;;;;10.47;56.55;101247.13;4981967;28;20058;-76
2023/08/29 02:48:31;;;;;;;2.30;1.70;;;;;;;10.49;56.32;101256.63;4981522;28;20172;-76
2023/08/29 02:50:57;;;;;;;2.22;1.80;;;;;;;10.50;56.33;101254.84;4982443;28;20132;-77
2023/08/29 02:53:22;;;;;;;1.83;1.40;;;;;;;10.60;56.72;101249.25;4980499;28;20042;-76
2023/08/29 02:55:52;;;;;;;1.45;1.17;;;;;;;10.59;56.39;101255.41;4982889;28;20033;-77
2023/08/29 02:58:18;;;;;;;2.92;2.00;;;;;;;10.54;56.54;101239.00;4981061;28;20516;-76
2023/08/29 03:00:45;;;;;;;2.33;1.75;;;;;;;10.55;56.72;101240.72;4967920;28;20033;-76
2023/08/29 03:03:11;;;;;;;2.50;1.67;;;;;;;10.75;56.38;101231.31;4966225;28;20127;-76
2023/08/29 03:05:36;;;;;;;2.65;1.85;;;;;;;10.76;56.07;101227.81;4982549;28;20045;-77
2023/08/29 03:08:04;;;;;;;2.03;1.60;;;;;;;10.79;56.42;101240.78;4980203;28;20033;-77
2023/08/29 03:10:35;;;;;;;3.70;1.38;;;;;;;10.98;55.99;101235.78;4968684;28;20034;-77
2023/08/29 03:13:00;;;;;;;2.30;2.00;;;;;;;10.89;55.69;101234.34;4983171;28;20723;-76
2023/08/29 03:15:26;;;;;;;2.97;1.85;;;;;;;10.95;55.88;101244.59;4984217;28;20034;-75
2023/08/29 03:17:51;;;;;;;2.30;1.45;;;;;;;10.81;56.44;101241.56;4986290;28;20254;-77
2023/08/29 03:20:18;;;;;;;2.63;2.08;;;;;;;10.85;56.52;101232.75;4997338;28;20129;-77
2023/08/29 03:22:43;;;;;;;3.25;2.33;;;;;;;10.98;55.90;101234.03;4965493;28;20045;-77
2023/08/29 03:25:09;;;;;;;5.28;2.08;;;;;;;10.79;55.57;101217.25;4977994;28;20052;-77
2023/08/29 03:27:34;;;;;;;2.58;1.42;;;;;;;10.94;56.07;101211.50;4982144;28;20208;-77
2023/08/29 03:30:01;;;;;;;2.53;2.17;;;;;;;10.99;55.99;101220.03;4983208;28;20092;-76
2023/08/29 03:32:26;;;;;;;3.67;2.63;;;;;;;10.79;56.00;101227.69;4981117;28;20042;-77
2023/08/29 03:34:53;;;;;;;2.92;2.28;;;;;;;10.91;55.75;101226.47;4967881;28;20100;-77
2023/08/29 03:37:19;;;;;;;2.45;1.83;;;;;;;10.96;55.53;101228.00;4995525;28;20054;-76
2023/08/29 03:39:44;;;;;;;2.63;2.15;;;;;;;10.90;56.06;101236.06;4983518;28;20512;-76
2023/08/29 03:42:10;;;;;;;4.93;1.75;;;;;;;10.93;56.35;101230.72;4979994;28;20029;-75
2023/08/29 03:44:36;;;;;;;2.53;1.40;;;;;;;11.00;56.29;101223.50;4981216;28;20147;-75
2023/08/29 03:47:01;;;;;;;3.17;1.67;;;;;;;11.10;56.39;101221.41;4983376;28;20041;-76
2023/08/29 03:49:28;;;;;;;6.03;1.67;;;;;;;11.20;56.14;101218.41;5001362;28;20048;-76
2023/08/29 03:51:56;;;;;;;4.97;1.92;;;;;;;11.30;56.34;101221.53;4980105;28;20464;-76
2023/08/29 03:54:21;;;;;;;4.20;1.85;;;;;;;11.48;56.01;101216.50;4996417;28;20080;-76
2023/08/29 03:56:48;;;;;;;4.25;2.22;;;;;;;11.51;56.51;101221.59;4984988;28;20065;-77
2023/08/29 03:59:15;;;;;;;2.63;1.77;;;;;;;11.67;56.37;101227.97;4984154;28;20038;-75
2023/08/29 04:01:41;;;;;;;4.70;2.10;;;;;;;11.72;56.48;101217.31;4997354;28;20048;-75
2023/08/29 04:04:06;;;;;;;2.65;1.70;;;;;;;11.70;56.96;101222.59;4968210;28;20622;-77
2023/08/29 04:06:34;;;;;;;4.25;2.03;;;;;;;11.84;57.37;101220.34;4982768;28;20048;-76
2023/08/29 04:09:00;;;;;;;3.70;1.52;;;;;;;11.90;57.11;101213.16;4970999;28;20041;-76
2023/08/29 04:11:26;;;;;;;3.08;1.52;;;;;;;11.98;57.21;101205.84;4986402;28;20033;-76
2023/08/29 04:13:52;;;;;;;2.13;1.60;;;;;;;12.08;57.50;101207.16;4982537;28;20048;-75
2023/08/29 04:16:17;;;;;;;2.15;1.30;;;;;;;12.00;57.90;101204.88;4985525;28;20054;-76
2023/08/29 04:18:43;;;;;;;2.70;1.40;;;;;;;12.14;57.90;101204.28;4982422;28;20658;-76
2023/08/29 04:21:09;;;;;;;1.73;0.93;;;;;;;12.20;57.78;101209.28;5000128;28;20030;-78
2023/08/29 04:23:34;;;;;;;3.60;1.10;;;;;;;12.14;57.96;101206.91;5007494;28;20348;-77
2023/08/29 04:26:00;;;;;;;4.38;1.58;;;;;;;12.19;57.89;101207.56;5023723;28;20026;-77
2023/08/29 04:28:26;;;;;;;3.08;1.70;;;;;;;12.28;57.95;101204.56;5013365;28;20030;-77
2023/08/29 04:30:51;;;;;;;1.45;0.70;;;;;;;12.16;58.15;101205.09;5021499;28;20025;-76
2023/08/29 04:33:17;;;;;;;2.38;0.50;;;;;;;12.19;57.97;101212.81;5001976;28;20026;-77
2023/08/29 04:35:43;;;;;;;1.20;0.68;;;;;;;12.17;58.24;101201.53;4990929;28;20026;-77
2023/08/29 04:38:09;;;;;;;1.20;0.40;;;;;;;12.25;58.29;101203.84;5009140;28;20222;-77
2023/08/29 04:40:35;;;;;;;1.98;0.45;;;;;;;12.13;58.45;101197.31;5003081;28;20076;-76
2023/08/29 04:43:01;;;;;;;1.52;0.47;;;;;;;12.10;58.76;101197.47;4968566;28;20052;-76
2023/08/29 04:45:27;;;;;;;1.50;0.40;;;;;;;12.22;58.70;101199.59;4997522;28;20033;-77
2023/08/29 04:47:53;;;;;;;0.85;0.32;;;;;;;12.21;59.02;101192.63;4983136;28;20045;-76
2023/08/29 04:50:20;;;;;;;1.67;0.30;;;;;;;12.24;58.73;101192.50;4983933;28;20535;-77
2023/08/29 04:52:45;;;;;;;0.90;0.45;;;;;;;12.32;58.65;101192.19;5000182;28;20042;-77
2023/08/29 04:55:11;;;;;;;2.90;0.20;;;;;;;12.35;58.53;101188.56;4972017;28;20527;-78
2023/08/29 04:57:37;;;;;;;1.10;0.40;;;;;;;12.40;58.56;101191.84;4979945;28;20104;-77
2023/08/29 05:00:04;;;;;;;0.93;0.30;;;;;;;12.45;58.37;101192.53;4986543;28;20036;-77
2023/08/29 05:02:30;;;;;;;1.65;0.20;;;;;;;12.39;58.33;101184.91;4979719;28;20796;-78
2023/08/29 05:04:57;;;;;;;2.63;0.30;;;;;;;12.53;58.17;101181.69;4978208;28;20033;-77
2023/08/29 05:07:23;;;;;;;0.98;0.20;;;;;;;12.52;58.43;101170.38;4982836;28;20092;-76
2023/08/29 05:09:49;;;;;;;0.60;0.32;;;;;;;12.61;57.98;101171.72;4979645;28;20418;-75
2023/08/29 05:12:16;;;;;;;2.05;0.20;;;;;;;12.52;57.94;101170.38;4979297;28;20450;-77
2023/08/29 05:14:42;;;;;;;0.70;0.30;;;;;;;12.60;58.26;101168.25;4980628;28;20034;-76
2023/08/29 05:17:09;;;;;;;0.40;0.10;;;;;;;12.79;57.96;101156.97;4992215;28;20044;-76
2023/08/29 05:19:34;;;;;;;0.30;0.10;;;;;;;12.83;57.89;101161.19;4984006;28;20038;-77
2023/08/29 05:22:00;;;;;;;1.92;0.22;;;;;;;12.67;57.96;101148.72;4994986;28;20041;-77
2023/08/29 05:24:26;;;;;;;2.22;0.20;;;;;;;12.83;58.15;101142.81;4977024;28;20037;-77
2023/08/29 05:26:51;;;;;;;0.47;0.20;;;;;;;12.86;57.82;101134.78;4997913;28;20030;-78
2023/08/29 05:29:17;;;;;;;0.40;0.10;;;;;;;12.90;57.87;101133.75;4976762;28;20717;-77
2023/08/29 05:31:42;;;;;;;1.40;0.45;;;;;;;13.03;57.56;101140.13;4964142;28;20121;-78
2023/08/29 05:34:07;;;;;;;0.70;0.10;;;;;;;13.25;57.89;101136.47;4980423;28;20077;-78
2023/08/29 05:36:35;;;;;;;0.68;0.10;;;;;;;13.44;57.43;101139.09;4992861;28;20036;-75
2023/08/29 05:39:01;;;;;;;0.50;0.20;;;;;;;13.58;57.31;101141.94;4995554;28;20112;-76
2023/08/29 05:41:31;;;;;;;1.75;0.10;;;;;;;13.66;56.91;101134.53;4981439;28;20038;-76
2023/08/29 05:43:56;;;;;;;1.85;0.20;;;;;;;13.73;56.05;101124.59;4978880;28;20049;-76
2023/08/29 05:46:22;;;;;;;0.93;0.10;;;;;;;13.90;56.03;101127.22;4983421;28;20044;-77
2023/08/29 05:48:48;;;;;;;1.02;0.13;;;;;;;13.86;55.28;101125.69;4999188;28;20046;-75
2023/08/29 05:51:14;;;;;;;0.38;0.10;;;;;;;13.96;55.99;101125.22;4982271;28;20052;-77
2023/08/29 05:53:40;;;;;;;1.05;0.20;;;;;;;13.99;55.46;101128.53;4976542;28;20042;-77
2023/08/29 05:56:06;;;;;;;0.50;0.10;;;;;;;14.06;54.85;101124.66;4979883;28;20029;-75
2023/08/29 05:58:32;;;;;;;0.88;0.25;;;;;;;14.32;54.64;101123.34;4975973;28;20451;-77
2023/08/29 06:00:59;;;;;;;0.77;0.20;;;;;;;14.44;54.56;101131.56;4980004;28;20029;-76
2023/08/29 06:03:24;;;;;;;1.65;0.45;;;;;;;14.49;54.42;101130.38;4976289;28;20052;-75
2023/08/29 06:05:50;;;;;;;1.50;0.65;;;;;;;14.53;54.25;101131.06;4981668;28;20049;-75
2023/08/29 06:08:16;;;;;;;2.05;0.30;;;;;;;14.32;53.41;101128.59;4992591;28;20133;-78
2023/08/29 06:10:42;;;;;;;0.82;0.20;;;;;;;14.31;54.41;101128.66;4991782;28;20081;-76
2023/08/29 06:13:08;;;;;;;2.38;0.32;;;;;;;14.24;54.12;101129.94;4992351;28;20157;-76
2023/08/29 06:15:34;;;;;;;0.68;0.20;;;;;;;14.28;53.74;101131.47;4978409;28;20199;-76
2023/08/29 06:18:00;;;;;;;0.82;0.38;;;;;;;14.28;53.97;101126.22;4978797;28;20393;-76
2023/08/29 06:20:27;;;;;;;1.30;0.20;;;;;;;14.33;54.36;101132.06;4991544;28;20065;-76
2023/08/29 06:22:56;;;;;;;0.98;0.40;;;;;;;14.48;54.09;101123.41;4979930;28;21842;-76
2023/08/29 06:25:22;;;;;;;1.77;0.10;;;;;;;14.60;53.56;101124.53;4978022;28;20034;-76
2023/08/29 06:27:48;;;;;;;0.73;0.20;;;;;;;14.81;53.13;101124.31;4976787;28;20096;-76
2023/08/29 06:30:14;;;;;;;1.38;0.20;;;;;;;14.93;51.50;101129.78;4960109;28;20022;-75
2023/08/29 06:32:40;;;;;;;2.13;0.20;;;;;;;15.21;51.67;101127.41;4973809;28;20412;-77
2023/08/29 06:35:07;;;;;;;0.52;0.17;;;;;;;15.44;50.91;101131.41;4981400;28;20038;-77
2023/08/29 06:37:33;;;;;;;0.63;0.30;;;;;;;15.62;50.02;101132.16;4974973;28;20074;-77
2023/08/29 06:39:59;;;;;;;1.70;0.10;;;;;;;16.11;49.92;101129.34;4979776;28;20588;-76
2023/08/29 06:42:25;;;;;;;0.90;0.13;;;;;;;18.18;46.90;101133.81;4990210;28;20078;-77
2023/08/29 06:44:52;;;;;;;1.23;0.30;;;;;;;19.45;41.96;101134.59;4997565;28;20038;-76
2023/08/29 06:47:17;;;;;;;2.17;0.10;;;;;;;20.45;40.27;101121.78;4972166;28;20053;-76
2023/08/29 06:49:43;;;;;;;0.50;0.10;;;;;;;20.85;38.62;101129.28;4982243;28;20121;-77
2023/08/29 06:52:09;;;;;;;1.73;0.10;;;;;;;21.07;39.15;101125.75;4994996;28;20476;-77
2023/08/29 06:54:35;;;;;;;0.30;0.10;;;;;;;20.87;38.19;101125.53;4975561;28;20049;-76
2023/08/29 06:57:01;;;;;;;0.90;0.20;;;;;;;20.13;37.88;101115.31;4978458;28;20423;-74
2023/08/29 06:59:27;;;;;;;1.63;0.30;;;;;;;19.92;39.84;101116.94;4988612;28;20038;-76
2023/08/29 07:01:52;;;;;;;0.88;0.30;;;;;;;20.39;39.67;101114.28;4975206;28;20125;-75
2023/08/29 07:04:18;;;;;;;4.18;0.70;;;;;;;20.87;37.33;101112.25;4978399;28;20568;-76
2023/08/29 07:06:43;;;;;;;1.52;0.20;;;;;;;21.28;37.29;101115.16;4978205;28;21128;-76
2023/08/29 07:09:09;;;;;;;0.25;0.10;;;;;;;21.76;35.97;101110.28;4984820;28;20042;-76
2023/08/29 07:11:34;;;;;;;2.08;0.10;;;;;;;22.30;35.45;101105.72;4981919;28;20040;-75
2023/08/29 07:14:00;;;;;;;0.40;0.10;;;;;;;23.09;34.04;101104.16;4978190;28;20084;-75
2023/08/29 07:16:25;;;;;;;0.25;0.10;;;;;;;23.35;32.46;101105.34;4992427;28;20468;-75
2023/08/29 07:18:51;;;;;;;0.60;0.10;;;;;;;23.44;32.54;101098.34;4980396;28;20074;-76
2023/08/29 07:21:16;;;;;;;1.30;0.10;;;;;;;22.85;33.49;101102.75;4996072;28;20400;-76
2023/08/29 07:23:42;;;;;;;2.20;0.05;;;;;;;24.69;30.35;101100.03;4982159;28;20113;-76
2023/08/29 07:26:08;;;;;;;1.08;0.00;;;;;;;25.00;30.28;101104.09;4984337;28;20461;-76
2023/08/29 07:28:33;;;;;;;0.75;0.10;;;;;;;24.69;30.63;101098.19;4999944;28;20089;-76
2023/08/29 07:30:59;;;;;;;0.30;0.05;;;;;;;23.49;32.47;101106.75;4979995;28;20032;-77
2023/08/29 07:33:24;;;;;;;0.40;0.03;;;;;;;23.40;31.82;101092.44;4982077;28;20053;-77
2023/08/29 07:35:50;;;;;;;0.20;0.20;;;;;;;23.52;31.40;101089.63;5000285;28;20045;-78
2023/08/29 07:38:17;;;;;;;1.17;0.10;;;;;;;23.49;31.76;101095.25;5001763;28;20044;-75
2023/08/29 07:40:45;;;;;;;2.03;0.20;;;;;;;23.49;30.89;101092.56;4995629;28;20592;-76
2023/08/29 07:43:11;;;;;;;2.50;0.20;;;;;;;23.68;31.16;101095.25;4995552;28;20053;-76
2023/08/29 07:45:36;;;;;;;2.17;0.13;;;;;;;23.92;31.76;101088.59;4977774;28;20635;-75
2023/08/29 07:48:02;;;;;;;0.50;0.10;;;;;;;24.54;31.56;101080.97;4978349;28;20923;-75
2023/08/29 07:50:28;;;;;;;1.55;0.20;;;;;;;24.81;28.63;101083.63;4997761;28;20476;-76
2023/08/29 07:52:54;;;;;;;0.55;0.20;;;;;;;25.38;28.38;101088.72;4986775;28;20080;-77
2023/08/29 07:55:20;;;;;;;0.80;0.20;;;;;;;24.98;29.60;101090.03;4975700;28;20539;-77
2023/08/29 07:57:47;;;;;;;0.28;0.03;;;;;;;25.20;28.48;101090.56;4986001;28;20100;-78
2023/08/29 08:00:14;;;;;;;1.45;0.30;;;;;;;25.15;28.59;101096.38;5009646;28;20546;-75
2023/08/29 08:02:40;;;;;;;1.75;0.10;;;;;;;25.76;28.88;101094.75;5002365;28;20049;-77
2023/08/29 08:05:16;;;;;;;0.10;0.00;;;;;;;25.33;28.59;101099.06;4992722;28;20277;-79
2023/08/29 08:07:44;;;;;;;0.30;0.10;;;;;;;25.07;28.81;101087.44;5001705;28;20164;-78
2023/08/29 08:10:10;;;;;;;1.05;0.30;;;;;;;24.90;29.52;101099.75;4991687;28;20465;-77
2023/08/29 08:12:37;;;;;;;2.80;1.25;;;;;;;25.14;29.13;101099.22;5004923;28;20168;-78
2023/08/29 08:15:04;;;;;;;0.45;0.10;;;;;;;24.76;29.88;101096.59;4997331;28;20060;-76
2023/08/29 08:17:31;;;;;;;0.32;0.08;;;;;;;24.74;29.47;101097.75;4984315;28;20057;-76
2023/08/29 08:19:56;;;;;;;0.25;0.10;;;;;;;24.79;29.97;101100.78;4985133;28;20126;-77
2023/08/29 08:22:23;;;;;;;0.30;0.00;;;;;;;24.70;29.65;101113.22;4983676;28;20125;-77
2023/08/29 08:24:48;;;;;;;0.30;0.10;;;;;;;23.67;30.17;101114.88;4988821;28;20051;-77
2023/08/29 08:27:14;;;;;;;1.48;0.05;;;;;;;23.72;31.44;101118.00;4993946;28;20105;-75
2023/08/29 08:29:39;;;;;;;0.28;0.00;;;;;;;23.94;30.83;101116.84;4988683;28;20066;-75
2023/08/29 08:32:05;;;;;;;0.30;0.05;;;;;;;24.24;30.65;101115.78;4975277;28;20105;-77
2023/08/29 08:34:30;;;;;;;0.95;0.00;;;;;;;24.39;29.22;101116.16;4980593;28;20038;-76
2023/08/29 08:36:56;;;;;;;0.63;0.00;;;;;;;24.21;30.03;101129.44;4974332;28;20068;-76
2023/08/29 08:39:22;;;;;;;0.32;0.00;;;;;;;23.94;30.11;101124.00;4977695;28;20084;-76
2023/08/29 08:41:48;;;;;;;0.20;0.00;;;;;;;23.70;30.41;101130.63;4991590;28;20124;-77
2023/08/29 08:44:17;;;;;;;0.75;0.10;;;;;;;23.92;30.86;101129.47;4992054;28;20084;-76
2023/08/29 08:46:43;;;;;;;1.00;0.05;;;;;;;24.51;28.99;101140.88;4979718;28;20125;-76
2023/08/29 08:49:10;;;;;;;0.30;0.10;;;;;;;24.38;29.04;101132.34;4975976;28;20038;-76
2023/08/29 08:51:39;;;;;;;2.85;0.10;;;;;;;23.57;30.52;101132.75;4979378;28;20037;-74
2023/08/29 08:54:10;;;;;;;3.25;0.10;;;;;;;22.89;32.00;101136.09;4978119;28;20082;-75
2023/08/29 08:56:38;;;;;;;2.97;0.10;;;;;;;22.96;31.47;101139.94;4977863;28;20076;-75
2023/08/29 08:59:03;;;;;;;0.77;0.00;;;;;;;22.75;32.45;101140.00;4990748;28;20604;-75
2023/08/29 09:01:30;;;;;;;1.05;0.13;;;;;;;22.93;32.39;101142.84;4960491;28;20034;-76
2023/08/29 09:03:56;;;;;;;0.45;0.00;;;;;;;21.45;33.48;101145.69;4989573;28;20050;-77
2023/08/29 09:06:21;;;;;;;0.20;0.00;;;;;;;20.74;33.44;101144.22;4993295;28;20120;-77
2023/08/29 09:08:47;;;;;;;1.25;0.10;;;;;;;19.45;36.17;101147.84;4982520;28;20133;-77
2023/08/29 09:11:16;;;;;;;0.98;0.10;;;;;;;19.34;37.53;101147.78;4993420;28;20179;-78
2023/08/29 09:13:46;;;;;;;1.73;0.10;;;;;;;19.82;36.91;101147.78;4978083;28;20272;-75
2023/08/29 09:16:12;;;;;;;0.10;0.00;;;;;;;19.97;37.27;101144.00;4994257;28;20033;-76
2023/08/29 09:18:42;;;;;;;0.47;0.10;;;;;;;20.13;36.74;101152.47;4980530;28;20107;-76
2023/08/29 09:21:18;;;;;;;0.70;0.05;;;;;;;20.28;36.69;101149.63;4975127;28;20033;-75
2023/08/29 09:23:44;;;;;;;1.38;0.00;;;;;;;20.25;35.94;101152.53;4979835;28;20057;-75
2023/08/29 09:26:12;;;;;;;0.22;0.00;;;;;;;20.40;34.51;101146.03;4976402;28;20033;-77
2023/08/29 09:28:38;;;;;;;0.22;0.10;;;;;;;20.54;34.93;101143.13;4992546;28;20049;-77
2023/08/29 09:31:09;;;;;;;0.45;0.10;;;;;;;20.74;35.23;101144.22;4976515;28;20096;-76
2023/08/29 09:33:36;;;;;;;2.10;0.00;;;;;;;20.84;33.73;101141.72;4962093;28;20136;-76
2023/08/29 09:36:02;;;;;;;0.30;0.10;;;;;;;20.79;34.68;101141.19;4978670;28;20033;-76
2023/08/29 09:38:29;;;;;;;0.73;0.10;;;;;;;21.09;34.73;101148.56;4976626;28;20089;-77
2023/08/29 09:40:55;;;;;;;1.10;0.10;;;;;;;21.31;33.98;101145.00;4959744;28;20125;-77
2023/08/29 09:43:21;;;;;;;0.45;0.10;;;;;;;20.77;34.93;101143.13;4994925;28;20044;-77
2023/08/29 09:45:52;;;;;;;3.50;0.10;;;;;;;20.99;34.40;101141.44;4990746;28;20033;-77
2023/08/29 09:48:18;;;;;;;;;;;;;;;20.31;35.28;101146.75;4993759;28;20049;-76
2023/08/29 09:50:45;;;;;;;0.32;0.10;;;;;;;20.90;34.67;101143.88;4992499;28;19918;-77
2023/08/29 09:53:15;;;;;;;4.53;0.10;;;;;;;20.64;34.98;101139.75;4978215;28;20471;-76
2023/08/29 09:55:45;;;;;;;1.20;0.10;;;;;;;20.66;37.06;101148.44;4978111;28;20038;-76
2023/08/29 09:58:12;;;;;;;0.30;0.03;;;;;;;20.87;34.92;101146.78;4981729;28;20042;-76
2023/08/29 10:00:39;;;;;;;0.40;0.10;;;;;;;21.06;34.90;101150.63;4976629;28;20392;-77
2023/08/29 10:03:08;;;;;;;0.60;0.10;;;;;;;20.49;35.19;101150.63;4974091;28;20046;-78
2023/08/29 10:05:36;;;;;;;0.30;0.10;;;;;;;20.85;34.00;101140.75;4992510;28;20029;-77
2023/08/29 10:08:11;;;;;;;0.50;0.00;;;;;;;20.37;35.97;101138.28;4991746;28;20103;-76
2023/08/29 10:10:40;;;;;;;0.95;0.10;;;;;;;20.13;35.25;101139.19;4957593;28;20030;-74
2023/08/29 10:13:10;;;;;;;0.43;0.10;;;;;;;20.43;35.99;101135.16;4988013;28;20041;-77
2023/08/29 10:15:36;;;;;;;0.75;0.17;;;;;;;20.90;34.68;101132.41;4975640;28;20886;-76
2023/08/29 10:18:02;;;;;;;1.95;0.82;;;;;;;21.33;34.28;101128.91;4977491;28;20065;-76
2023/08/29 10:20:28;;;;;;;4.15;0.80;;;;;;;20.85;34.12;101124.81;4976664;28;20030;-74
2023/08/29 10:22:54;;;;;;;0.73;0.10;;;;;;;20.81;34.88;101122.47;4994034;28;20058;-76
2023/08/29 10:25:21;;;;;;;0.70;0.00;;;;;;;20.93;34.52;101122.38;4978501;28;20045;-76
2023/08/29 10:27:48;;;;;;;1.17;0.10;;;;;;;20.84;34.86;101117.81;4972868;28;20081;-77
2023/08/29 10:30:14;;;;;;;1.02;0.10;;;;;;;21.40;34.26;101123.94;4980748;28;20444;-78
2023/08/29 10:32:42;;;;;;;1.52;0.15;;;;;;;21.42;34.66;101116.69;4989675;28;20049;-76
2023/08/29 10:35:17;;;;;;;0.93;0.10;;;;;;;21.50;33.96;101117.78;4995070;28;20025;-78
2023/08/29 10:37:43;;;;;;;0.40;0.10;;;;;;;21.51;33.13;101116.81;4973857;28;20045;-76
2023/08/29 10:40:11;;;;;;;0.03;0.00;;;;;;;21.22;34.13;101116.53;4978134;28;20037;-78
2023/08/29 10:42:51;;;;;;;0.20;0.08;;;;;;;21.18;34.17;101112.44;4997027;28;20044;-77
2023/08/29 10:45:19;;;;;;;1.40;0.35;;;;;;;21.31;34.05;101110.44;4982279;28;20026;-76
2023/08/29 10:47:46;;;;;;;1.30;0.10;;;;;;;20.20;35.47;101112.19;4983280;28;20070;-77
2023/08/29 10:50:18;;;;;;;0.45;0.05;;;;;;;19.79;37.83;101108.22;4984161;28;20038;-75
2023/08/29 10:52:44;;;;;;;0.50;0.10;;;;;;;19.15;37.84;101108.53;4969585;28;20069;-77
2023/08/29 10:55:21;;;;;;;1.65;0.10;;;;;;;19.05;39.46;101108.34;5000073;28;20710;-77
2023/08/29 10:57:46;;;;;;;0.95;0.10;;;;;;;18.63;39.67;101107.78;4996728;28;20049;-76
2023/08/29 11:00:17;;;;;;;1.45;0.10;;;;;;;18.32;40.74;101109.94;4982348;28;20097;-77
2023/08/29 11:02:44;;;;;;;0.75;0.10;;;;;;;18.06;40.38;101115.19;4969708;28;20049;-75
2023/08/29 11:05:11;;;;;;;1.45;0.20;;;;;;;17.74;41.74;101113.84;4989663;28;20041;-76
2023/08/29 11:07:38;;;;;;;0.75;0.20;;;;;;;17.86;41.71;101115.69;4992564;28;20103;-75
2023/08/29 11:10:20;;;;;;;0.38;0.20;;;;;;;18.15;41.25;101120.81;4985971;28;20082;-77
2023/08/29 11:13:09;;;;;;;2.00;0.10;;;;;;;17.62;41.16;101118.16;4982558;28;20177;-77
2023/08/29 11:16:00;;;;;;;0.85;0.10;;;;;;;17.60;41.29;101115.63;4967410;28;20251;-78
2023/08/29 11:18:29;;;;;;;;;;;;;;;17.40;41.30;101116.03;4992835;28;20162;-77
2023/08/29 11:20:55;;;;;;;0.17;0.05;;;;;;;16.89;42.05;101110.53;4985044;28;19983;-77
2023/08/29 11:23:21;;;;;;;0.60;0.20;;;;;;;17.20;41.93;101109.41;4993269;28;20038;-77
2023/08/29 11:25:51;;;;;;;0.35;0.10;;;;;;;17.34;42.27;101112.03;4985705;28;20041;-76